Etusivu
METAR-TAF:

METAR-TAF

Lentoasemat :

Francistown, Botswana

Leveyspiiri: 21-13S, Pituuspiiri: 027-30E, korkeus merenpinnasta: 1001 m

Tämänhetkinen sää

Tämä raportti tehtiin 1 tunti ja 13 minuuttia sitten, kello 09.00 UTC
Tuuli 4 kn eri suunnista
Lämpötila 31°C
Kosteus 22%
Ilmanpaine 1018 hPa
Näkyvyys 10 km tai enemmän
ei pilviä alle 1500 m:ssä eikä cumulonimbus-pilviä

METAR: FBFT 260900Z VRB04KT CAVOK 31/07 Q1018

Aika: 12:13 (10:13 UTC)

Sääennuste

Tämä raportti tehtiin 4 tuntia ja 13 minuuttia sitten, kello 06.00 UTC
Ennuste voimassa 26. päivästä klo 09 UTC - 26. päivään klo 18 UTC
Tuuli 2 kn eri suunnista
Näkyvyys 10 km tai enemmän
ei pilviä alle 1500 m:ssä eikä cumulonimbus-pilviä

TAF: FBFT 260600Z 2609/2618 VRB02KT CAVOK

Säähavainnot ja -ennusteet yli 4000 lentoasemalta (METAR- ja TAF-raportit).

Käytössä olevat sääasemat on merkitty karttaan keltaisilla ja punaisilla pisteillä.

Aseta hiiri pisteen päälle nähdäksesi sääaseman nimen.

Klikkaa sitten nähdäksesi säähavainnot ja -ennusteet.

Kartan vaihtaminen: klikkaa mustalla rastilla varustettuja vihreitä pisteitä, niin voit zoomata sisään; viivalla varustettua vihreää pistettä, niin voit zoomata ulos tai vihreitä nuolia, niin pääset viereisille kartoille.


METAR-TAF: